.
WxDataArchive / Data Records for 2013-12-12
2013-12-11 December 2013 2013-12-13

Data Records for Thursday, 12 December 2013

Time	Temp	Chill	HIndex	Humid	Dewpt	 Wind 	HiWind	WindDir	Rain 	Barom 
-----	----	-----	------	-----	-----	------	------	-------	-----	----- 
00:00	5.4	5.4	5.4	78	0.1	0	0	---	0.00	30.524 
00:05	5.6	5.6	5.6	78	0.3	0	0	---	0.00	30.524 
00:10	6.0	6.0	6.0	79	0.9	0	0	---	0.00	30.524 
00:15	6.7	6.7	6.7	81	2.1	0	0	---	0.00	30.526 
00:20	7.4	7.4	7.4	81	2.8	0	0	---	0.00	30.526 
00:25	8.3	8.3	8.3	82	4.0	0	1	270	0.00	30.526 
00:30	8.8	8.8	8.8	82	4.5	0	1	270	0.00	30.526 
00:35	9.2	9.2	9.2	82	4.8	0	1	270	0.00	30.526 
00:40	9.3	9.3	9.3	82	4.9	0	1	270	0.00	30.526 
00:45	9.3	9.3	9.3	81	4.7	0	1	270	0.00	30.529 
00:50	9.3	9.3	9.3	81	4.7	0	2	270	0.00	30.529 
00:55	9.2	9.2	9.2	80	4.3	0	2	270	0.00	30.529 
01:00	9.0	9.0	9.0	79	3.8	0	1	270	0.00	30.535 
01:05	8.8	8.8	8.8	78	3.4	0	1	270	0.00	30.535 
01:10	8.6	8.6	8.6	78	3.2	0	2	270	0.00	30.535 
01:15	8.4	8.4	8.4	77	2.7	0	2	270	0.00	30.533 
01:20	8.3	8.3	8.3	76	2.3	0	1	270	0.00	30.533 
01:25	8.1	8.1	8.1	75	1.8	0	1	270	0.00	30.533 
01:30	7.7	7.7	7.7	75	1.5	0	1	270	0.00	30.532 
01:35	7.6	7.6	7.6	74	1.1	0	1	270	0.00	30.532 
01:40	7.4	7.4	7.4	73	0.6	0	1	270	0.00	30.532 
01:45	7.0	7.0	7.0	73	0.2	0	1	270	0.00	30.538 
01:50	6.9	6.9	6.9	73	0.1	0	1	270	0.00	30.538 
01:55	6.9	6.9	6.9	73	0.1	0	1	270	0.00	30.538 
02:00	6.7	6.7	6.7	72	-0.4	0	1	270	0.00	30.542 
02:05	6.5	6.5	6.5	72	-0.6	0	1	270	0.00	30.542 
02:10	6.3	6.3	6.3	72	-0.8	0	1	270	0.00	30.542 
02:15	6.1	6.1	6.1	72	-1.0	0	2	270	0.00	30.532 
02:20	6.1	6.1	6.1	72	-1.0	0	1	270	0.00	30.532 
02:25	6.1	6.1	6.1	72	-1.0	0	1	270	0.00	30.532 
02:30	6.0	6.0	6.0	72	-1.1	0	2	270	0.00	30.533 
02:35	6.0	6.0	6.0	72	-1.1	0	1	270	0.00	30.533 
02:40	5.8	5.8	5.8	72	-1.2	0	1	270	0.00	30.533 
02:45	5.6	5.6	5.6	72	-1.4	0	1	270	0.00	30.534 
02:50	5.4	5.4	5.4	71	-1.9	0	1	270	0.00	30.534 
02:55	5.4	5.4	5.4	71	-1.9	0	2	270	0.00	30.534 
03:00	5.2	5.2	5.2	71	-2.1	0	1	270	0.00	30.533 
03:05	5.0	5.0	5.0	71	-2.3	0	2	270	0.00	30.533 
03:10	4.8	4.8	4.8	71	-2.5	0	1	270	0.00	30.533 
03:15	4.8	4.8	4.8	71	-2.5	0	1	270	0.00	30.534 
03:20	4.7	4.7	4.7	71	-2.6	0	1	270	0.00	30.534 
03:25	4.5	4.5	4.5	71	-2.8	0	2	270	0.00	30.534 
03:30	4.5	4.5	4.5	71	-2.8	0	1	270	0.00	30.528 
03:35	4.3	4.3	4.3	71	-3.0	0	1	270	0.00	30.528 
03:40	4.3	4.3	4.3	71	-3.0	0	2	270	0.00	30.528 
03:45	4.1	4.1	4.1	71	-3.2	0	2	270	0.00	30.523 
03:50	4.1	4.1	4.1	71	-3.2	0	1	270	0.00	30.523 
03:55	3.9	3.9	3.9	71	-3.4	0	1	270	0.00	30.523 
04:00	3.9	3.9	3.9	71	-3.4	0	1	270	0.00	30.526 
04:05	3.7	3.7	3.7	71	-3.6	0	1	270	0.00	30.526 
04:10	3.7	3.7	3.7	71	-3.6	0	1	270	0.00	30.526 
04:15	3.7	3.7	3.7	71	-3.6	0	2	270	0.00	30.522 
04:20	3.7	3.7	3.7	71	-3.6	0	1	270	0.00	30.522 
04:25	3.7	3.7	3.7	71	-3.6	0	1	270	0.00	30.522 
04:30	3.7	3.7	3.7	71	-3.6	0	3	270	0.00	30.524 
04:35	3.5	3.5	3.5	71	-3.8	0	1	270	0.00	30.524 
04:40	3.4	3.4	3.4	71	-3.9	0	1	270	0.00	30.524 
04:45	3.4	3.4	3.4	71	-3.9	0	1	270	0.00	30.524 
04:50	3.4	3.4	3.4	71	-3.9	0	2	270	0.00	30.524 
04:55	3.4	3.4	3.4	71	-3.9	0	1	270	0.00	30.524 
05:00	3.2	3.2	3.2	71	-4.0	0	1	270	0.00	30.535 
05:05	3.0	3.0	3.0	70	-4.5	0	2	270	0.00	30.535 
05:10	3.0	3.0	3.0	70	-4.5	0	1	270	0.00	30.535 
05:15	2.8	2.8	2.8	70	-4.7	0	2	270	0.00	30.536 
05:20	2.8	2.8	2.8	70	-4.7	0	1	270	0.00	30.536 
05:25	2.8	2.8	2.8	70	-4.7	0	1	270	0.00	30.536 
05:30	2.6	2.6	2.6	70	-4.9	0	1	270	0.00	30.539 
05:35	2.6	2.6	2.6	69	-5.2	0	1	270	0.00	30.539 
05:40	2.4	2.4	2.4	69	-5.4	0	0	---	0.00	30.539 
05:45	2.2	2.2	2.2	69	-5.6	0	1	270	0.00	30.538 
05:50	2.0	2.0	2.0	69	-5.8	0	1	270	0.00	30.538 
05:55	2.0	2.0	2.0	69	-5.8	0	1	270	0.00	30.538 
06:00	1.8	1.8	1.8	69	-6.0	0	0	---	0.00	30.540 
06:05	1.7	1.7	1.7	69	-6.1	0	0	---	0.00	30.540 
06:10	1.7	1.7	1.7	69	-6.1	0	1	270	0.00	30.540 
06:15	1.7	1.7	1.7	69	-6.1	0	2	270	0.00	30.539 
06:20	1.7	1.7	1.7	69	-6.1	0	3	270	0.00	30.539 
06:25	1.7	1.7	1.7	69	-6.1	0	1	270	0.00	30.539 
06:30	1.7	1.7	1.7	69	-6.1	0	1	270	0.00	30.536 
06:35	1.7	1.7	1.7	69	-6.1	0	2	270	0.00	30.536 
06:40	1.5	1.5	1.5	68	-6.6	0	2	270	0.00	30.536 
06:45	1.5	1.5	1.5	68	-6.6	0	2	270	0.00	30.528 
06:50	1.5	1.5	1.5	68	-6.6	0	1	270	0.00	30.528 
06:55	1.3	1.3	1.3	68	-6.8	0	2	270	0.00	30.528 
07:00	1.3	1.3	1.3	68	-6.8	0	1	270	0.00	30.529 
07:05	1.1	1.1	1.1	68	-7.0	0	1	270	0.00	30.529 
07:10	0.9	0.9	0.9	68	-7.1	0	1	270	0.00	30.529 
07:15	0.9	0.9	0.9	68	-7.1	0	1	270	0.00	30.536 
07:20	0.9	0.9	0.9	68	-7.1	0	1	270	0.00	30.536 
07:25	0.7	0.7	0.7	68	-7.3	0	3	270	0.00	30.536 
07:30	0.5	0.5	0.5	68	-7.5	1	3	270	0.00	30.534 
07:35	0.5	0.5	0.5	68	-7.5	1	3	270	0.00	30.534 
07:40	0.3	0.3	0.3	68	-7.7	1	2	248	0.00	30.534 
07:45	0.1	0.1	0.1	68	-7.9	0	3	248	0.00	30.535 
07:50	0.1	0.1	0.1	68	-7.9	0	3	248	0.00	30.535 
07:55	0.0	0.0	0.0	68	-8.0	0	4	248	0.00	30.535 
08:00	0.0	0.0	0.0	68	-8.0	0	2	248	0.00	30.538 
08:05	0.0	0.0	0.0	68	-8.0	0	2	248	0.00	30.538 
08:10	-0.2	-0.2	-0.2	68	-8.2	0	2	248	0.00	30.538 
08:15	-0.2	-0.2	-0.2	68	-8.2	0	2	248	0.00	30.540 
08:20	0.0	0.0	0.0	68	-8.0	0	2	248	0.00	30.540 
08:25	0.0	0.0	0.0	68	-8.0	0	3	248	0.00	30.540 
08:30	0.1	0.1	0.1	68	-7.9	0	2	248	0.00	30.549 
08:35	0.3	0.3	0.3	68	-7.7	0	2	248	0.00	30.549 
08:40	0.5	0.5	0.5	68	-7.5	0	3	248	0.00	30.549 
08:45	0.7	0.7	0.7	68	-7.3	0	2	248	0.00	30.532 
08:50	0.9	0.9	0.9	68	-7.1	0	2	248	0.00	30.532 
08:55	1.1	1.1	1.1	68	-7.0	1	3	248	0.00	30.532 
09:00	1.3	1.3	1.3	67	-7.1	1	3	248	0.00	30.533 
09:05	1.7	1.7	1.7	68	-6.4	0	2	248	0.00	30.533 
09:10	2.0	2.0	2.0	67	-6.4	1	4	248	0.00	30.533 
09:15	2.2	2.2	2.2	67	-6.2	1	3	248	0.00	30.534 
09:20	2.4	2.4	2.4	66	-6.3	1	4	248	0.00	30.534 
09:25	2.6	2.6	2.6	66	-6.1	1	3	248	0.00	30.534 
09:30	3.0	3.0	3.0	65	-6.1	1	5	248	0.00	30.518 
09:35	3.2	3.2	3.2	65	-5.9	1	3	248	0.00	30.518 
09:40	3.5	3.5	3.5	64	-5.9	1	5	248	0.00	30.518 
09:45	3.7	3.7	3.7	64	-5.7	1	5	248	0.00	30.518 
09:50	3.9	3.9	3.9	63	-5.8	2	4	248	0.00	30.518 
09:55	4.3	4.3	4.3	62	-5.8	2	5	248	0.00	30.518 
10:00	4.5	4.5	4.5	62	-5.6	1	5	248	0.00	30.525 
10:05	4.7	4.7	4.7	61	-5.8	2	5	248	0.00	30.525 
10:10	4.8	4.8	4.8	61	-5.7	1	4	248	0.00	30.525 
10:15	5.4	5.4	5.4	61	-5.1	1	4	248	0.00	30.519 
10:20	5.6	5.6	5.6	60	-5.2	1	5	248	0.00	30.519 
10:25	6.0	6.0	6.0	60	-4.9	1	3	248	0.00	30.519 
10:30	6.3	6.3	6.3	60	-4.6	1	6	248	0.00	30.518 
10:35	6.7	6.7	6.7	59	-4.5	0	3	248	0.00	30.518 
10:40	7.2	7.2	7.2	58	-4.4	0	2	248	0.00	30.518 
10:45	7.6	7.6	7.6	58	-4.1	0	3	248	0.00	30.519 
10:50	7.7	7.7	7.7	57	-4.3	1	6	248	0.00	30.519 
10:55	7.9	7.9	7.9	56	-4.5	1	5	248	0.00	30.519 
11:00	8.3	8.3	8.3	55	-4.5	1	5	248	0.00	30.501 
11:05	8.6	8.6	8.6	56	-3.8	0	5	248	0.00	30.501 
11:10	9.0	9.0	9.0	55	-3.8	1	3	270	0.00	30.501 
11:15	9.3	9.3	9.3	55	-3.6	1	4	248	0.00	30.489 
11:20	9.5	9.5	9.5	54	-3.8	2	6	248	0.00	30.489 
11:25	10.0	10.0	10.0	55	-2.9	1	3	248	0.00	30.489 
11:30	10.5	10.5	10.5	55	-2.4	1	4	248	0.00	30.479 
11:35	10.7	10.7	10.7	53	-3.0	1	4	248	0.00	30.479 
11:40	10.9	10.9	10.9	53	-2.8	1	4	270	0.00	30.479 
11:45	11.1	11.1	11.1	52	-3.0	1	4	270	0.00	30.474 
11:50	11.2	11.2	11.2	52	-3.0	1	5	248	0.00	30.474 
11:55	11.4	11.4	11.4	52	-2.8	1	4	248	0.00	30.474 
12:00	11.7	11.7	11.7	53	-2.1	1	4	270	0.00	30.461 
12:05	11.9	11.9	11.9	52	-2.3	1	3	248	0.00	30.461 
12:10	12.1	12.1	12.1	51	-2.5	1	4	248	0.00	30.461 
12:15	12.3	12.3	12.3	51	-2.3	1	4	270	0.00	30.448 
12:20	12.4	12.4	12.4	51	-2.2	1	4	270	0.00	30.448 
12:25	12.4	12.4	12.4	51	-2.2	2	5	248	0.00	30.448 
12:30	12.6	12.6	12.6	52	-1.6	1	5	248	0.00	30.438 
12:35	12.8	12.8	12.8	53	-1.1	1	6	248	0.00	30.438 
12:40	13.1	13.1	13.1	53	-0.8	1	5	248	0.00	30.438 
12:45	13.3	13.3	13.3	53	-0.6	1	5	248	0.00	30.428 
12:50	13.5	13.5	13.5	54	-0.0	1	5	248	0.00	30.428 
12:55	13.5	13.5	13.5	52	-0.8	2	11	248	0.00	30.428 
13:00	13.5	13.5	13.5	53	-0.4	2	7	248	0.00	30.425 
13:05	13.8	13.8	13.8	54	0.3	1	5	248	0.00	30.425 
13:10	14.1	14.1	14.1	54	0.5	1	6	270	0.00	30.425 
13:15	14.4	14.4	14.4	53	0.4	1	4	248	0.00	30.413 
13:20	15.2	15.2	15.2	53	1.2	1	3	248	0.00	30.413 
13:25	15.9	15.9	15.9	52	1.4	1	3	248	0.00	30.413 
13:30	16.2	16.2	16.2	51	1.3	1	5	248	0.00	30.398 
13:35	16.4	16.4	16.4	51	1.5	2	5	248	0.00	30.398 
13:40	16.5	16.5	16.5	51	1.6	1	6	248	0.00	30.398 
13:45	16.7	16.7	16.7	52	2.2	1	3	248	0.00	30.391 
13:50	17.0	17.0	17.0	52	2.4	1	5	248	0.00	30.391 
13:55	17.3	17.3	17.3	50	1.9	1	6	248	0.00	30.391 
14:00	17.7	17.7	17.7	49	1.8	1	5	248	0.00	30.376 
14:05	18.1	18.1	18.1	50	2.6	1	4	248	0.00	30.376 
14:10	18.3	18.3	18.3	50	2.8	2	5	248	0.00	30.376 
14:15	18.6	18.6	18.6	50	3.1	2	6	248	0.00	30.377 
14:20	18.8	18.8	18.8	49	2.8	2	5	248	0.00	30.377 
14:25	18.8	18.8	18.8	48	2.4	2	7	248	0.00	30.377 
14:30	19.1	19.1	19.1	49	3.1	1	5	270	0.00	30.371 
14:35	19.4	19.4	19.4	48	3.0	2	5	248	0.00	30.371 
14:40	19.5	19.5	19.5	49	3.5	1	5	248	0.00	30.371 
14:45	19.7	19.7	19.7	48	3.2	1	7	248	0.00	30.366 
14:50	19.9	19.9	19.9	48	3.4	1	6	248	0.00	30.366 
14:55	20.2	20.2	20.2	49	4.1	1	3	248	0.00	30.366 
15:00	20.5	20.5	20.5	49	4.4	1	4	248	0.00	30.357 
15:05	20.6	20.6	20.6	47	3.6	1	6	248	0.00	30.357 
15:10	20.8	20.8	20.8	48	4.2	0	3	225	0.00	30.357 
15:15	21.1	21.1	21.1	48	4.5	0	3	225	0.00	30.351 
15:20	21.6	21.6	21.6	46	4.1	1	6	248	0.00	30.351 
15:25	22.1	22.1	22.1	44	3.6	2	6	248	0.00	30.351 
15:30	22.4	22.4	22.4	44	3.8	1	6	248	0.00	30.344 
15:35	22.7	22.7	22.7	43	3.6	2	5	248	0.00	30.344 
15:40	22.9	22.9	22.9	44	4.3	1	4	248	0.00	30.344 
15:45	22.9	22.9	22.9	43	3.8	1	6	248	0.00	30.335 
15:50	22.9	22.9	22.9	43	3.8	1	6	248	0.00	30.335 
15:55	22.9	22.9	22.9	43	3.8	2	4	248	0.00	30.335 
16:00	23.0	23.0	23.0	43	3.9	1	6	270	0.00	30.330 
16:05	23.3	23.3	23.3	44	4.6	1	3	270	0.00	30.330 
16:10	23.5	23.5	23.5	43	4.3	1	5	248	0.00	30.330 
16:15	23.6	23.6	23.6	42	3.9	2	7	248	0.00	30.335 
16:20	23.6	23.6	23.6	42	3.9	2	6	248	0.00	30.335 
16:25	23.6	23.6	23.6	41	3.4	3	10	248	0.00	30.335 
16:30	23.6	23.6	23.6	42	3.9	2	5	248	0.00	30.332 
16:35	23.5	23.5	23.5	42	3.8	3	6	248	0.00	30.332 
16:40	23.3	23.3	23.3	43	4.1	2	10	270	0.00	30.332 
16:45	23.2	23.2	23.2	43	4.1	2	4	270	0.00	30.333 
16:50	23.2	23.2	23.2	43	4.1	2	4	248	0.00	30.333 
16:55	23.0	23.0	23.0	43	3.9	1	4	248	0.00	30.333 
17:00	22.9	22.9	22.9	44	4.3	1	4	248	0.00	30.329 
17:05	22.7	22.7	22.7	44	4.1	1	4	270	0.00	30.329 
17:10	22.4	22.4	22.4	45	4.3	1	3	248	0.00	30.329 
17:15	22.2	22.2	22.2	46	4.6	1	3	248	0.00	30.325 
17:20	22.1	22.1	22.1	47	5.0	0	3	248	0.00	30.325 
17:25	21.9	21.9	21.9	47	4.8	0	3	248	0.00	30.325 
17:30	21.8	21.8	21.8	47	4.7	1	3	248	0.00	30.320 
17:35	21.6	21.6	21.6	48	5.0	0	3	248	0.00	30.320 
17:40	21.6	21.6	21.6	48	5.0	0	2	248	0.00	30.320 
17:45	21.4	21.4	21.4	49	5.2	1	3	248	0.00	30.331 
17:50	21.4	21.4	21.4	49	5.2	0	4	248	0.00	30.331 
17:55	21.3	21.3	21.3	49	5.2	0	3	248	0.00	30.331 
18:00	21.3	21.3	21.3	49	5.2	1	3	248	0.00	30.333 
18:05	21.3	21.3	21.3	50	5.6	1	4	248	0.00	30.333 
18:10	21.1	21.1	21.1	50	5.4	0	1	248	0.00	30.333 
18:15	21.1	21.1	21.1	51	5.8	0	3	248	0.00	30.330 
18:20	21.0	21.0	21.0	51	5.7	0	1	248	0.00	30.330 
18:25	21.0	21.0	21.0	52	6.2	0	2	248	0.00	30.330 
18:30	20.8	20.8	20.8	52	6.0	0	1	248	0.00	30.328 
18:35	20.6	20.6	20.6	53	6.2	0	1	248	0.00	30.328 
18:40	20.6	20.6	20.6	54	6.6	0	2	248	0.00	30.328 
18:45	20.5	20.5	20.5	54	6.5	0	2	248	0.00	30.328 
18:50	20.5	20.5	20.5	54	6.5	0	3	248	0.00	30.328 
18:55	20.3	20.3	20.3	55	6.7	0	2	248	0.00	30.328 
19:00	20.3	20.3	20.3	55	6.7	0	2	248	0.00	30.333 
19:05	20.2	20.2	20.2	56	7.0	0	2	248	0.00	30.333 
19:10	20.0	20.0	20.0	56	6.9	0	3	248	0.00	30.333 
19:15	19.9	19.9	19.9	57	7.2	0	3	248	0.00	30.334 
19:20	19.9	19.9	19.9	57	7.2	0	2	248	0.00	30.334 
19:25	19.7	19.7	19.7	58	7.3	0	2	248	0.00	30.334 
19:30	19.7	19.7	19.7	58	7.3	0	1	248	0.00	30.336 
19:35	19.5	19.5	19.5	58	7.2	0	2	248	0.00	30.336 
19:40	19.5	19.5	19.5	58	7.2	0	2	248	0.00	30.336 
19:45	19.2	19.2	19.2	58	6.9	0	0	---	0.00	30.334 
19:50	18.8	18.8	18.8	58	6.5	0	1	248	0.00	30.334 
19:55	18.3	18.3	18.3	58	6.0	0	0	---	0.00	30.334 
20:00	18.0	18.0	18.0	58	5.7	0	0	---	0.00	30.337 
20:05	17.7	17.7	17.7	59	5.8	0	0	---	0.00	30.337 
20:10	17.3	17.3	17.3	59	5.5	0	1	248	0.00	30.337 
20:15	17.2	17.2	17.2	60	5.7	0	1	248	0.00	30.337 
20:20	17.2	17.2	17.2	60	5.7	0	1	248	0.00	30.337 
20:25	17.0	17.0	17.0	60	5.5	0	1	248	0.00	30.337 
20:30	17.0	17.0	17.0	60	5.5	0	3	248	0.00	30.337 
20:35	17.0	17.0	17.0	59	5.2	0	1	248	0.00	30.337 
20:40	17.2	17.2	17.2	59	5.4	0	2	248	0.00	30.337 
20:45	17.2	17.2	17.2	58	5.0	0	2	248	0.00	30.328 
20:50	17.2	17.2	17.2	58	5.0	0	3	248	0.00	30.328 
20:55	17.3	17.3	17.3	57	4.7	0	1	248	0.00	30.328 
21:00	17.2	17.2	17.2	57	4.6	0	2	248	0.00	30.327 
21:05	17.2	17.2	17.2	57	4.6	0	2	248	0.00	30.327 
21:10	17.2	17.2	17.2	57	4.6	0	2	248	0.00	30.327 
21:15	17.2	17.2	17.2	56	4.2	0	3	248	0.00	30.317 
21:20	17.2	17.2	17.2	56	4.2	0	4	248	0.00	30.317 
21:25	17.0	17.0	17.0	56	4.0	0	4	248	0.00	30.317 
21:30	17.0	17.0	17.0	56	4.0	0	3	248	0.00	30.315 
21:35	17.2	17.2	17.2	56	4.2	1	4	248	0.00	30.315 
21:40	17.2	17.2	17.2	55	3.8	1	5	248	0.00	30.315 
21:45	17.3	17.3	17.3	55	3.9	1	4	248	0.00	30.313 
21:50	17.3	17.3	17.3	54	3.5	1	5	248	0.00	30.313 
21:55	17.3	17.3	17.3	54	3.5	1	3	248	0.00	30.313 
22:00	17.3	17.3	17.3	54	3.5	1	3	248	0.00	30.306 
22:05	17.3	17.3	17.3	54	3.5	1	4	248	0.00	30.306 
22:10	17.3	17.3	17.3	54	3.5	2	6	248	0.00	30.306 
22:15	17.3	17.3	17.3	53	3.1	1	4	248	0.00	30.305 
22:20	17.2	17.2	17.2	53	3.0	1	4	248	0.00	30.305 
22:25	17.2	17.2	17.2	53	3.0	1	6	248	0.00	30.305 
22:30	17.2	17.2	17.2	53	3.0	1	3	248	0.00	30.300 
22:35	17.0	17.0	17.0	53	2.9	0	3	248	0.00	30.300 
22:40	17.0	17.0	17.0	53	2.9	1	3	248	0.00	30.300 
22:45	16.9	16.9	16.9	53	2.8	0	3	248	0.00	30.298 
22:50	16.7	16.7	16.7	53	2.6	1	4	248	0.00	30.298 
22:55	16.7	16.7	16.7	53	2.6	1	4	248	0.00	30.298 
23:00	16.7	16.7	16.7	54	3.0	0	3	248	0.00	30.300 
23:05	16.5	16.5	16.5	54	2.8	0	3	248	0.00	30.300 
23:10	16.4	16.4	16.4	54	2.7	0	3	248	0.00	30.300 
23:15	16.2	16.2	16.2	55	2.9	1	5	248	0.00	30.294 
23:20	16.1	16.1	16.1	55	2.8	1	4	248	0.00	30.294 
23:25	16.1	16.1	16.1	56	3.2	0	3	248	0.00	30.294 
23:30	16.1	16.1	16.1	56	3.2	1	4	248	0.00	30.295 
23:35	16.2	16.2	16.2	56	3.3	1	3	248	0.00	30.295 
23:40	16.2	16.2	16.2	57	3.7	0	4	248	0.00	30.295 
23:45	16.2	16.2	16.2	57	3.7	1	5	248	0.00	30.282 
23:50	16.4	16.4	16.4	56	3.5	2	7	248	0.00	30.282 
23:55	16.5	16.5	16.5	56	3.6	1	6	248	0.00	30.282 

CoCoRaHS
IN-AL-39
A2 Web Hosting
Creative Commons License
GoDaddy
search engine by freefind advanced

loaded 2018-11-16 23:15:45 • last modified 2010-11-18 10:43:29
Privacy PolicyDisclaimer
• wx.awcolley.com is powered by PmWiki v.2002016 •
• all content (unless otherwise noted) © 2018 A W Colley